Time;durP1;ratioP1;P1;durP2;ratioP2;P2;SDS_P1;SDS_P2;PMS_P1;PMS_P2;Temp;Humidity;BMP_temperature;BMP_pressure;BME280_temperature;BME280_humidity;BME280_pressure;Samples;Min_cycle;Max_cycle;Signal;HPM_P1;HPM_P2
2021/03/09 00:01:02;;;;;;;8.90;8.00;;;3.10;69.30;;;;;;4988303;28;20234;-89
2021/03/09 00:03:27;;;;;;;8.73;7.80;;;3.20;69.20;;;;;;4987436;28;20194;-89
2021/03/09 00:05:53;;;;;;;8.50;7.70;;;3.30;69.00;;;;;;4970190;28;20203;-89
2021/03/09 00:08:19;;;;;;;9.20;8.23;;;3.30;68.50;;;;;;4967980;29;20191;-88
2021/03/09 00:10:44;;;;;;;9.40;8.40;;;3.40;68.30;;;;;;4967820;29;20317;-89
2021/03/09 00:13:10;;;;;;;8.73;7.83;;;3.50;68.20;;;;;;4967631;29;20599;-88
2021/03/09 00:15:36;;;;;;;9.37;7.80;;;3.50;67.70;;;;;;4967791;29;20226;-89
2021/03/09 00:18:01;;;;;;;9.37;8.47;;;3.50;67.60;;;;;;4969554;28;20211;-89
2021/03/09 00:20:27;;;;;;;9.17;8.20;;;3.60;67.60;;;;;;4985249;28;20207;-89
2021/03/09 00:22:53;;;;;;;9.93;8.90;;;3.40;67.70;;;;;;4986950;28;20183;-89
2021/03/09 00:25:18;;;;;;;9.37;8.17;;;3.30;68.20;;;;;;4986457;28;20183;-89
2021/03/09 00:27:44;;;;;;;11.27;8.50;;;3.30;68.00;;;;;;4987364;28;20187;-89
2021/03/09 00:30:10;;;;;;;8.77;7.87;;;3.20;68.20;;;;;;4986676;28;20210;-89
2021/03/09 00:32:36;;;;;;;11.10;9.03;;;3.20;68.30;;;;;;4986897;28;20183;-88
2021/03/09 00:35:02;;;;;;;9.13;8.13;;;3.20;68.50;;;;;;5002296;28;20187;-89
2021/03/09 00:37:28;;;;;;;9.67;8.60;;;3.20;68.70;;;;;;4986953;28;20227;-89
2021/03/09 00:39:54;;;;;;;9.53;8.00;;;3.20;68.80;;;;;;4986269;28;20650;-89
2021/03/09 00:42:21;;;;;;;10.07;8.53;;;3.20;68.60;;;;;;4987768;28;20246;-88
2021/03/09 00:44:46;;;;;;;9.33;7.70;;;3.20;68.80;;;;;;4983228;28;20730;-90
2021/03/09 00:47:12;;;;;;;9.87;8.20;;;3.20;69.10;;;;;;4966474;29;20195;-89
2021/03/09 00:49:38;;;;;;;7.90;7.20;;;3.30;68.50;;;;;;4982262;28;20187;-88
2021/03/09 00:52:04;;;;;;;8.60;7.70;;;3.30;68.10;;;;;;4967708;29;20217;-88
2021/03/09 00:54:29;;;;;;;10.00;7.90;;;3.20;68.40;;;;;;4965989;29;20183;-88
2021/03/09 00:56:55;;;;;;;10.97;8.23;;;3.30;68.30;;;;;;4967926;29;20246;-88
2021/03/09 00:59:21;;;;;;;9.93;8.20;;;3.30;68.20;;;;;;4969126;29;20184;-88
2021/03/09 01:01:46;;;;;;;9.40;7.50;;;3.30;68.30;;;;;;4966554;28;20234;-89
2021/03/09 01:04:12;;;;;;;9.63;8.27;;;3.20;68.30;;;;;;4966951;29;20172;-88
2021/03/09 01:06:38;;;;;;;11.10;8.43;;;3.20;69.00;;;;;;4967498;29;20183;-89
2021/03/09 01:09:04;;;;;;;10.77;9.20;;;2.90;70.00;;;;;;4966969;29;20204;-89
2021/03/09 01:11:29;;;;;;;11.17;8.40;;;2.90;70.40;;;;;;4967102;28;20207;-89
2021/03/09 01:13:55;;;;;;;8.87;7.97;;;2.80;71.20;;;;;;4976309;28;20194;-88
2021/03/09 01:16:21;;;;;;;10.63;9.47;;;2.80;71.50;;;;;;4984849;28;20299;-89
2021/03/09 01:18:46;;;;;;;10.60;9.13;;;2.90;71.30;;;;;;4985769;28;20207;-89
2021/03/09 01:21:12;;;;;;;11.50;9.50;;;2.80;72.20;;;;;;5000742;28;20195;-88
2021/03/09 01:23:38;;;;;;;9.63;8.60;;;2.60;73.10;;;;;;4986213;28;20223;-88
2021/03/09 01:26:03;;;;;;;9.47;8.53;;;2.60;73.40;;;;;;4985499;28;20218;-88
2021/03/09 01:28:30;;;;;;;8.73;7.77;;;2.60;73.60;;;;;;5000872;28;20194;-89
2021/03/09 01:30:56;;;;;;;10.40;8.27;;;2.50;73.90;;;;;;4989707;28;20207;-89
2021/03/09 01:33:22;;;;;;;13.40;9.27;;;2.50;74.40;;;;;;4985405;28;20176;-90
2021/03/09 01:35:48;;;;;;;11.10;9.27;;;2.40;74.70;;;;;;4971241;29;20251;-89
2021/03/09 01:38:14;;;;;;;12.67;9.73;;;2.40;74.60;;;;;;4969636;28;20195;-89
2021/03/09 01:40:40;;;;;;;13.50;9.77;;;2.40;74.60;;;;;;4970145;29;20207;-89
2021/03/09 01:43:05;;;;;;;13.57;9.37;;;2.40;74.90;;;;;;4969800;29;20258;-90
2021/03/09 01:45:32;;;;;;;9.87;8.87;;;2.40;75.30;;;;;;4969793;28;20262;-90
2021/03/09 01:48:06;;;;;;;10.77;9.67;;;2.40;75.90;;;;;;4971033;29;20199;-89
2021/03/09 01:50:38;;;;;;;9.47;8.30;;;2.40;75.40;;;;;;4971399;29;20281;-89
2021/03/09 01:53:06;;;;;;;11.37;9.50;;;2.50;75.40;;;;;;4969972;29;20180;-90
2021/03/09 01:55:32;;;;;;;11.30;8.97;;;2.50;75.50;;;;;;4969104;29;20240;-89
2021/03/09 01:58:00;;;;;;;11.40;9.73;;;2.40;75.70;;;;;;4985816;28;20181;-89
2021/03/09 02:00:26;;;;;;;11.57;9.80;;;2.40;75.90;;;;;;4985987;28;20234;-90
2021/03/09 02:02:52;;;;;;;10.90;9.70;;;2.40;76.30;;;;;;4969835;28;20239;-89
2021/03/09 02:05:18;;;;;;;11.37;9.87;;;2.40;75.80;;;;;;4969619;29;20211;-91
2021/03/09 02:07:44;;;;;;;9.90;8.83;;;2.50;75.80;;;;;;4969907;29;20191;-89
2021/03/09 02:10:12;;;;;;;11.57;9.17;;;2.40;76.10;;;;;;4969149;29;20247;-89
2021/03/09 02:13:12;;;;;;;13.40;9.93;;;2.40;76.10;;;;;;4985400;28;20195;-90
2021/03/09 02:16:02;;;;;;;13.07;9.60;;;2.30;77.00;;;;;;4991179;28;20203;-89
2021/03/09 02:18:48;;;;;;;14.27;9.93;;;2.20;77.10;;;;;;4990221;28;20177;-89
2021/03/09 02:21:31;;;;;;;11.77;9.50;;;2.20;77.20;;;;;;4985462;28;20782;-89
2021/03/09 02:24:12;;;;;;;10.40;9.30;;;2.20;77.40;;;;;;4966120;28;20535;-89
2021/03/09 02:26:56;;;;;;;12.97;9.87;;;2.40;76.70;;;;;;4998220;28;20190;-89
2021/03/09 02:29:40;;;;;;;12.03;10.17;;;2.30;76.70;;;;;;4997788;28;20636;-90
2021/03/09 02:32:12;;;;;;;10.53;8.93;;;2.30;76.60;;;;;;4982991;28;20168;-90
2021/03/09 02:34:44;;;;;;;11.70;9.27;;;2.30;76.60;;;;;;4981073;28;20175;-90
2021/03/09 02:37:13;;;;;;;10.67;9.57;;;2.50;75.90;;;;;;4980268;28;20211;-89
2021/03/09 02:39:43;;;;;;;10.90;9.80;;;2.60;75.50;;;;;;4983246;28;20179;-90
2021/03/09 02:42:11;;;;;;;10.90;9.80;;;2.60;75.30;;;;;;4983816;28;20181;-90
2021/03/09 02:44:40;;;;;;;11.67;9.50;;;2.50;75.70;;;;;;4983957;28;20179;-90
2021/03/09 02:47:08;;;;;;;12.90;9.70;;;2.50;75.90;;;;;;4983615;28;20190;-89
2021/03/09 02:49:38;;;;;;;11.47;10.23;;;2.40;76.50;;;;;;4982480;28;20198;-90
2021/03/09 02:52:06;;;;;;;12.00;9.13;;;2.30;76.80;;;;;;4982295;28;20183;-90
2021/03/09 02:54:34;;;;;;;14.07;10.90;;;2.20;77.30;;;;;;4982591;28;20183;-90
2021/03/09 02:57:02;;;;;;;12.97;10.50;;;2.20;77.20;;;;;;4983323;28;20253;-90
2021/03/09 02:59:29;;;;;;;11.30;9.87;;;2.20;77.40;;;;;;4983290;28;20697;-90
2021/03/09 03:01:55;;;;;;;11.20;9.47;;;2.20;78.40;;;;;;4970491;28;20223;-90
2021/03/09 03:04:22;;;;;;;10.80;9.47;;;2.20;77.30;;;;;;4965399;29;20238;-90
2021/03/09 03:06:49;;;;;;;11.17;9.83;;;2.20;77.20;;;;;;4963698;29;20184;-89
2021/03/09 03:09:19;;;;;;;10.67;9.20;;;2.20;77.30;;;;;;4965281;29;20187;-89
2021/03/09 03:11:47;;;;;;;12.23;10.50;;;2.20;77.40;;;;;;4964741;29;20218;-90
2021/03/09 03:14:14;;;;;;;12.00;10.40;;;2.20;77.20;;;;;;4963582;29;20188;-89
2021/03/09 03:16:41;;;;;;;12.60;9.43;;;2.10;77.30;;;;;;4964429;28;20210;-90
2021/03/09 03:19:08;;;;;;;12.27;9.77;;;2.10;77.60;;;;;;4963566;28;20272;-90
2021/03/09 03:21:38;;;;;;;12.43;10.13;;;2.00;78.10;;;;;;4964875;28;20215;-90
2021/03/09 03:24:06;;;;;;;13.30;9.53;;;2.00;78.10;;;;;;4966431;28;20203;-89
2021/03/09 03:26:35;;;;;;;12.07;10.67;;;1.90;78.40;;;;;;4983907;28;20663;-90
2021/03/09 03:29:04;;;;;;;15.73;11.00;;;2.00;78.40;;;;;;4983826;28;20246;-90
2021/03/09 03:31:31;;;;;;;13.03;10.57;;;2.00;78.50;;;;;;4982605;28;20203;-89
2021/03/09 03:33:57;;;;;;;13.60;10.30;;;2.00;78.40;;;;;;4984221;28;20171;-90
2021/03/09 03:36:24;;;;;;;12.63;10.57;;;2.10;78.20;;;;;;4991006;28;20765;-90
2021/03/09 03:38:50;;;;;;;10.33;9.23;;;2.10;78.00;;;;;;4998777;28;20271;-89
2021/03/09 03:41:16;;;;;;;12.90;10.10;;;2.10;77.90;;;;;;4983828;28;20199;-89
2021/03/09 03:43:41;;;;;;;15.10;10.53;;;2.20;77.60;;;;;;4982517;28;20190;-89
2021/03/09 03:46:07;;;;;;;12.33;11.00;;;2.20;77.80;;;;;;4983410;28;20187;-89
2021/03/09 03:48:37;;;;;;;12.30;11.00;;;2.10;77.90;;;;;;4985954;28;20545;-89
2021/03/09 03:51:08;;;;;;;12.10;10.53;;;2.00;78.50;;;;;;4983605;28;20717;-90
2021/03/09 03:53:57;;;;;;;13.40;10.53;;;1.90;78.80;;;;;;4998103;28;20182;-89
2021/03/09 03:56:52;;;;;;;14.57;10.63;;;2.00;78.90;;;;;;4982127;28;20270;-89
2021/03/09 03:59:32;;;;;;;12.63;10.43;;;1.90;78.80;;;;;;4983216;28;20707;-89
2021/03/09 04:02:04;;;;;;;12.77;10.73;;;2.00;78.80;;;;;;4983123;28;20202;-89
2021/03/09 04:04:31;;;;;;;13.73;11.00;;;2.00;78.40;;;;;;4982851;28;20174;-89
2021/03/09 04:06:56;;;;;;;13.37;10.13;;;2.00;78.70;;;;;;4982091;28;20310;-90
2021/03/09 04:09:24;;;;;;;14.90;11.10;;;2.00;78.60;;;;;;4981953;28;20631;-90
2021/03/09 04:11:51;;;;;;;12.80;10.03;;;2.00;78.60;;;;;;4981551;28;20202;-90
2021/03/09 04:14:17;;;;;;;14.13;10.67;;;2.00;78.90;;;;;;4981910;28;20187;-89
2021/03/09 04:16:46;;;;;;;14.33;11.00;;;1.90;79.40;;;;;;4982457;28;20234;-89
2021/03/09 04:19:14;;;;;;;13.57;10.10;;;1.70;80.20;;;;;;4998351;28;20187;-90
2021/03/09 04:21:42;;;;;;;15.83;11.23;;;1.70;80.30;;;;;;4982569;28;20210;-90
2021/03/09 04:24:10;;;;;;;12.67;10.43;;;1.70;80.40;;;;;;4983175;28;20265;-90
2021/03/09 04:26:36;;;;;;;13.90;10.73;;;1.80;80.10;;;;;;4983115;28;20183;-89
2021/03/09 04:29:03;;;;;;;14.70;12.17;;;1.90;79.70;;;;;;4982912;28;20206;-89
2021/03/09 04:31:29;;;;;;;14.40;11.40;;;1.80;79.70;;;;;;4982582;28;20286;-89
2021/03/09 04:33:55;;;;;;;13.70;11.30;;;1.90;80.00;;;;;;4997947;28;20187;-89
2021/03/09 04:36:21;;;;;;;12.93;11.43;;;1.90;79.70;;;;;;4981228;28;20206;-89
2021/03/09 04:38:48;;;;;;;13.57;10.90;;;1.80;80.00;;;;;;4982698;28;20174;-89
2021/03/09 04:41:15;;;;;;;12.57;10.70;;;1.80;80.00;;;;;;4982576;28;20218;-89
2021/03/09 04:43:40;;;;;;;14.23;10.67;;;1.80;80.00;;;;;;4982408;28;20198;-90
2021/03/09 04:46:06;;;;;;;15.20;11.40;;;1.90;80.00;;;;;;4980101;28;20193;-89
2021/03/09 04:48:36;;;;;;;13.13;11.03;;;1.90;79.50;;;;;;4961841;29;20192;-89
2021/03/09 04:51:11;;;;;;;12.47;10.87;;;1.90;79.70;;;;;;4963322;28;20203;-89
2021/03/09 04:53:41;;;;;;;12.20;10.93;;;1.90;79.30;;;;;;4961922;28;20195;-89
2021/03/09 04:56:08;;;;;;;15.33;11.07;;;2.00;79.30;;;;;;4963366;28;20916;-89
2021/03/09 04:58:34;;;;;;;13.90;11.13;;;2.10;78.90;;;;;;4982508;28;20183;-88
2021/03/09 05:01:00;;;;;;;11.43;9.97;;;2.00;78.80;;;;;;4982178;28;20203;-89
2021/03/09 05:03:26;;;;;;;13.00;10.23;;;2.10;78.50;;;;;;4981597;28;20191;-89
2021/03/09 05:05:52;;;;;;;12.37;10.53;;;2.20;78.10;;;;;;4982201;28;20280;-89
2021/03/09 05:08:19;;;;;;;13.23;10.87;;;2.20;78.00;;;;;;4982346;28;20198;-89
2021/03/09 05:10:44;;;;;;;16.23;13.10;;;2.20;77.80;;;;;;4981929;28;20206;-89
2021/03/09 05:13:10;;;;;;;14.23;11.33;;;2.10;78.00;;;;;;4985467;28;20187;-89
2021/03/09 05:15:36;;;;;;;12.63;11.27;;;2.00;78.40;;;;;;4980644;28;20211;-89
2021/03/09 05:18:02;;;;;;;15.70;12.73;;;1.90;79.00;;;;;;4981406;28;20199;-89
2021/03/09 05:20:28;;;;;;;15.43;11.87;;;1.90;79.60;;;;;;4980706;28;20714;-89
2021/03/09 05:22:53;;;;;;;16.63;13.13;;;1.90;79.30;;;;;;4982001;28;20183;-89
2021/03/09 05:25:19;;;;;;;14.27;12.73;;;2.00;79.00;;;;;;4980972;28;20281;-89
2021/03/09 05:27:47;;;;;;;16.33;14.17;;;1.90;78.90;;;;;;4964324;28;20258;-89
2021/03/09 05:30:15;;;;;;;15.47;11.67;;;1.90;79.30;;;;;;4980526;28;20199;-89
2021/03/09 05:32:41;;;;;;;14.50;11.17;;;1.90;79.60;;;;;;4982001;28;20192;-89
2021/03/09 05:35:07;;;;;;;14.93;12.10;;;2.00;79.20;;;;;;4981056;28;20182;-90
2021/03/09 05:37:33;;;;;;;17.20;12.40;;;2.00;79.00;;;;;;4982764;28;20233;-89
2021/03/09 05:39:59;;;;;;;14.47;12.27;;;2.00;78.70;;;;;;4982124;28;20180;-89
2021/03/09 05:42:25;;;;;;;12.80;11.10;;;2.00;79.00;;;;;;4982249;28;20701;-89
2021/03/09 05:44:51;;;;;;;15.93;12.27;;;2.10;78.60;;;;;;4992456;28;20176;-88
2021/03/09 05:47:17;;;;;;;17.60;11.90;;;2.20;78.20;;;;;;4961829;29;20187;-89
2021/03/09 05:49:46;;;;;;;13.60;11.40;;;2.20;77.80;;;;;;4962414;28;20275;-88
2021/03/09 05:52:12;;;;;;;13.90;11.77;;;2.20;77.60;;;;;;4967562;28;20193;-88
2021/03/09 05:54:38;;;;;;;14.93;11.13;;;2.20;77.60;;;;;;4980967;28;20187;-88
2021/03/09 05:57:04;;;;;;;13.07;10.77;;;2.20;77.80;;;;;;4981751;28;20203;-88
2021/03/09 05:59:30;;;;;;;14.63;11.93;;;2.20;78.00;;;;;;4966606;28;20189;-88
2021/03/09 06:01:56;;;;;;;15.53;12.00;;;2.20;77.70;;;;;;4972029;28;20732;-87
2021/03/09 06:04:22;;;;;;;15.03;12.20;;;2.30;77.40;;;;;;4980910;28;20163;-88
2021/03/09 06:06:48;;;;;;;16.33;12.40;;;2.30;77.40;;;;;;4980300;28;20187;-88
2021/03/09 06:09:32;;;;;;;15.70;12.30;;;2.30;77.50;;;;;;4979393;28;20191;-88
2021/03/09 06:12:12;;;;;;;17.90;14.30;;;2.20;78.00;;;;;;4978269;28;20199;-89
2021/03/09 06:14:59;;;;;;;15.63;13.00;;;2.20;78.20;;;;;;4977654;28;20197;-87
2021/03/09 06:17:40;;;;;;;15.97;11.43;;;2.10;78.70;;;;;;4995116;28;20190;-88
2021/03/09 06:20:17;;;;;;;14.40;11.53;;;2.10;78.70;;;;;;4987939;28;20215;-88
2021/03/09 06:22:47;;;;;;;13.17;11.70;;;2.10;78.40;;;;;;4983220;28;20222;-88
2021/03/09 06:25:15;;;;;;;14.27;11.60;;;2.10;78.50;;;;;;4983604;28;20187;-88
2021/03/09 06:27:42;;;;;;;15.10;11.93;;;2.10;78.50;;;;;;4970544;28;20191;-88
2021/03/09 06:30:11;;;;;;;18.47;13.10;;;2.20;78.20;;;;;;4971117;28;20214;-89
2021/03/09 06:32:45;;;;;;;14.20;12.60;;;2.20;78.20;;;;;;4984140;28;20179;-87
2021/03/09 06:35:35;;;;;;;16.00;12.73;;;2.30;78.00;;;;;;4984394;28;20187;-87
2021/03/09 06:38:24;;;;;;;21.90;11.53;;;2.30;78.00;;;;;;4985759;28;20233;-88
2021/03/09 06:41:11;;;;;;;12.63;10.73;;;2.40;77.60;;;;;;4979566;28;20569;-88
2021/03/09 06:43:41;;;;;;;15.90;12.33;;;2.60;76.90;;;;;;4977178;28;20183;-89
2021/03/09 06:46:20;;;;;;;16.73;12.50;;;2.60;76.70;;;;;;4983914;28;20183;-89
2021/03/09 06:48:48;;;;;;;14.77;12.50;;;2.60;76.80;;;;;;4980745;28;20206;-90
2021/03/09 06:51:30;;;;;;;15.63;12.13;;;2.60;76.70;;;;;;4977807;28;20583;-90
2021/03/09 06:54:09;;;;;;;17.03;13.17;;;2.70;76.80;;;;;;4966511;28;20194;-89
2021/03/09 06:56:39;;;;;;;17.67;12.03;;;2.70;76.60;;;;;;5002384;28;20202;-89
2021/03/09 06:59:20;;;;;;;14.40;12.90;;;2.70;76.50;;;;;;4984090;28;20759;-89
2021/03/09 07:02:14;;;;;;;16.53;12.47;;;2.80;76.70;;;;;;4981717;28;20203;-88
2021/03/09 07:04:41;;;;;;;19.87;12.67;;;2.70;76.60;;;;;;4987614;28;20672;-89
2021/03/09 07:07:09;;;;;;;15.93;12.87;;;2.70;76.80;;;;;;4977843;28;20250;-89
2021/03/09 07:09:35;;;;;;;17.73;12.57;;;2.70;77.00;;;;;;4971059;28;20188;-90
2021/03/09 07:12:03;;;;;;;17.07;12.93;;;2.80;76.70;;;;;;4999858;28;20241;-89
2021/03/09 07:14:33;;;;;;;16.83;12.33;;;2.80;76.40;;;;;;4984953;28;20183;-89
2021/03/09 07:17:03;;;;;;;16.17;13.10;;;2.90;76.30;;;;;;4984787;28;20223;-89
2021/03/09 07:19:35;;;;;;;18.13;12.70;;;2.90;76.50;;;;;;4976370;28;20195;-88
2021/03/09 07:22:03;;;;;;;15.10;13.43;;;2.70;76.70;;;;;;4983695;28;20203;-89
2021/03/09 07:24:30;;;;;;;17.00;12.93;;;2.70;77.20;;;;;;4981621;28;20187;-88
2021/03/09 07:27:02;;;;;;;19.07;12.83;;;2.80;77.50;;;;;;4983143;28;20202;-88
2021/03/09 07:29:31;;;;;;;16.20;12.70;;;2.70;78.00;;;;;;4975362;28;20219;-88
2021/03/09 07:32:00;;;;;;;19.53;13.50;;;2.60;78.10;;;;;;4983637;28;20222;-88
2021/03/09 07:34:27;;;;;;;19.00;13.27;;;2.70;78.40;;;;;;4971436;28;20230;-88
2021/03/09 07:36:55;;;;;;;19.37;13.10;;;2.70;80.20;;;;;;4982941;28;20207;-88
2021/03/09 07:39:22;;;;;;;17.27;12.93;;;2.70;78.50;;;;;;4983219;28;20175;-89
2021/03/09 07:41:49;;;;;;;18.27;13.87;;;2.80;78.00;;;;;;4980565;28;20226;-88
2021/03/09 07:44:16;;;;;;;19.57;14.10;;;2.90;77.60;;;;;;4986291;28;20195;-89
2021/03/09 07:46:42;;;;;;;16.50;13.30;;;3.10;77.30;;;;;;4980292;28;20184;-87
2021/03/09 07:49:08;;;;;;;15.07;12.80;;;3.20;76.40;;;;;;4963489;29;20190;-89
2021/03/09 07:51:34;;;;;;;21.67;13.73;;;3.20;76.30;;;;;;4982548;28;20223;-88
2021/03/09 07:54:10;;;;;;;21.40;14.10;;;3.30;76.10;;;;;;4981103;28;20222;-89
2021/03/09 07:56:36;;;;;;;16.33;12.70;;;3.40;75.60;;;;;;4976520;28;20221;-86
2021/03/09 07:59:07;;;;;;;19.27;14.17;;;3.40;75.40;;;;;;4984796;28;20179;-86
2021/03/09 08:01:48;;;;;;;19.23;14.57;;;3.60;75.20;;;;;;4985041;28;20238;-87
2021/03/09 08:04:14;;;;;;;17.47;13.90;;;3.70;74.40;;;;;;5004301;28;20182;-87
2021/03/09 08:06:44;;;;;;;20.47;15.10;;;3.70;74.30;;;;;;4964317;28;20194;-89
2021/03/09 08:09:36;;;;;;;15.80;13.77;;;3.70;74.10;;;;;;4966037;28;20551;-87
2021/03/09 08:12:02;;;;;;;20.63;14.73;;;3.80;73.70;;;;;;4980981;28;20208;-87
2021/03/09 08:14:28;;;;;;;42.03;16.03;;;4.00;73.20;;;;;;4982974;28;20205;-88
2021/03/09 08:16:54;;;;;;;19.63;15.90;;;4.00;73.40;;;;;;4982834;28;20210;-88
2021/03/09 08:19:29;;;;;;;16.93;15.00;;;4.00;72.90;;;;;;4984174;28;20182;-88
2021/03/09 08:22:01;;;;;;;14.60;13.10;;;4.10;72.30;;;;;;4984844;28;20210;-88
2021/03/09 08:24:42;;;;;;;20.40;15.63;;;4.10;72.30;;;;;;4993168;28;20273;-87
2021/03/09 08:27:30;;;;;;;30.73;17.37;;;4.20;71.30;;;;;;4984654;28;20238;-89
2021/03/09 08:29:56;;;;;;;20.53;15.53;;;4.30;71.70;;;;;;4970712;28;20661;-87
2021/03/09 08:32:30;;;;;;;18.47;14.23;;;4.40;70.70;;;;;;4975958;28;20187;-88
2021/03/09 08:35:15;;;;;;;17.53;13.50;;;4.40;70.10;;;;;;4963993;28;20707;-87
2021/03/09 08:37:45;;;;;;;17.63;13.87;;;4.40;69.80;;;;;;4983685;28;20182;-88
2021/03/09 08:40:14;;;;;;;1998.37;270.80;;;4.50;69.00;;;;;;4978090;28;20200;-88
2021/03/09 08:43:01;;;;;;;250.13;42.13;;;4.60;68.80;;;;;;4965561;28;20187;-88
2021/03/09 08:45:54;;;;;;;15.83;13.40;;;4.60;68.60;;;;;;4964677;29;20176;-88
2021/03/09 08:48:50;;;;;;;21.03;14.70;;;4.80;67.90;;;;;;4965208;28;20171;-88
2021/03/09 08:51:49;;;;;;;16.43;13.33;;;4.70;68.30;;;;;;4978349;28;20222;-88
2021/03/09 08:54:25;;;;;;;16.10;13.67;;;4.90;68.30;;;;;;4961394;28;20210;-89
2021/03/09 08:56:51;;;;;;;16.07;13.73;;;4.90;68.30;;;;;;4983710;28;20249;-88
2021/03/09 08:59:30;;;;;;;16.20;14.07;;;5.00;67.20;;;;;;4973417;28;20187;-89
2021/03/09 09:02:08;;;;;;;16.40;14.20;;;5.00;66.90;;;;;;4964320;28;20247;-90
2021/03/09 09:04:35;;;;;;;16.50;14.37;;;5.10;67.50;;;;;;4965485;28;20176;-88
2021/03/09 09:07:15;;;;;;;17.20;14.43;;;5.10;66.80;;;;;;4965530;28;20267;-89
2021/03/09 09:09:41;;;;;;;15.03;13.47;;;5.20;66.00;;;;;;4976693;28;20191;-88
2021/03/09 09:12:32;;;;;;;17.57;13.70;;;5.40;65.50;;;;;;4984514;28;20213;-88
2021/03/09 09:15:04;;;;;;;15.47;13.87;;;5.40;65.70;;;;;;4999608;28;20194;-88
2021/03/09 09:17:30;;;;;;;15.90;14.23;;;5.50;66.10;;;;;;4999527;28;20215;-88
2021/03/09 09:20:00;;;;;;;14.77;13.27;;;5.60;64.20;;;;;;4975377;28;20288;-89
2021/03/09 09:22:28;;;;;;;15.70;13.87;;;5.90;63.60;;;;;;4983943;28;20689;-89
2021/03/09 09:24:58;;;;;;;19.20;14.20;;;6.10;62.90;;;;;;4999003;28;20186;-88
2021/03/09 09:27:24;;;;;;;16.13;14.40;;;6.20;63.00;;;;;;4980727;28;20652;-89
2021/03/09 09:29:56;;;;;;;17.43;15.63;;;6.10;63.30;;;;;;4968678;28;20186;-90
2021/03/09 09:32:22;;;;;;;19.60;14.27;;;6.00;64.00;;;;;;4977368;28;20270;-88
2021/03/09 09:34:57;;;;;;;14.90;13.50;;;6.10;63.00;;;;;;4964785;29;20568;-88
2021/03/09 09:37:24;;;;;;;15.87;14.27;;;6.20;62.70;;;;;;4964423;29;20575;-87
2021/03/09 09:39:49;;;;;;;17.83;15.43;;;6.20;62.50;;;;;;4965144;28;20591;-88
2021/03/09 09:42:19;;;;;;;17.03;15.27;;;6.10;62.90;;;;;;4964621;28;20219;-89
2021/03/09 09:44:46;;;;;;;18.07;14.60;;;6.10;63.70;;;;;;4980348;28;20188;-91
2021/03/09 09:47:13;;;;;;;16.30;14.60;;;5.80;65.00;;;;;;4965180;28;20191;-90
2021/03/09 09:49:42;;;;;;;19.27;16.00;;;5.50;65.70;;;;;;4967786;28;20191;-89
2021/03/09 09:52:13;;;;;;;16.70;14.50;;;5.70;65.40;;;;;;4985461;28;20203;-86
2021/03/09 09:54:39;;;;;;;15.20;13.60;;;5.70;65.50;;;;;;4969304;28;20179;-88
2021/03/09 09:57:09;;;;;;;17.50;13.77;;;5.70;65.10;;;;;;4970639;28;20202;-89
2021/03/09 09:59:35;;;;;;;15.87;13.87;;;6.00;64.70;;;;;;4985575;28;20190;-89
2021/03/09 10:02:23;;;;;;;17.53;14.70;;;6.30;63.30;;;;;;4986789;28;20215;-88
2021/03/09 10:04:50;;;;;;;16.43;14.73;;;6.20;63.80;;;;;;4987158;28;20271;-88
2021/03/09 10:07:19;;;;;;;16.43;14.27;;;6.60;61.60;;;;;;4988048;28;20776;-89
2021/03/09 10:10:06;;;;;;;19.47;14.97;;;6.90;61.30;;;;;;4983031;28;20218;-88
2021/03/09 10:12:37;;;;;;;17.13;15.30;;;6.80;60.30;;;;;;4983286;28;20180;-89
2021/03/09 10:15:07;;;;;;;17.63;14.23;;;7.10;59.30;;;;;;4984299;28;20178;-88
2021/03/09 10:17:34;;;;;;;19.63;15.47;;;7.30;58.60;;;;;;4987578;28;20197;-87
2021/03/09 10:20:00;;;;;;;16.40;14.47;;;7.30;59.10;;;;;;4982902;28;20268;-87
2021/03/09 10:22:26;;;;;;;19.67;15.40;;;7.60;58.80;;;;;;4975120;28;20234;-86
2021/03/09 10:24:57;;;;;;;17.23;15.47;;;7.90;57.10;;;;;;4986022;28;20175;-87
2021/03/09 10:27:23;;;;;;;17.43;15.10;;;8.00;56.50;;;;;;4967352;28;20231;-88
2021/03/09 10:29:55;;;;;;;15.40;13.80;;;8.00;56.30;;;;;;4969404;28;20197;-88
2021/03/09 10:32:21;;;;;;;23.13;15.57;;;8.20;56.60;;;;;;4986115;28;20516;-90
2021/03/09 10:34:51;;;;;;;16.77;14.13;;;8.10;57.30;;;;;;4984538;28;20245;-90
2021/03/09 10:37:37;;;;;;;17.23;15.53;;;8.10;56.50;;;;;;4975548;28;20207;-90
2021/03/09 10:40:05;;;;;;;16.63;14.93;;;8.10;56.90;;;;;;4971695;28;20242;-90
2021/03/09 10:42:37;;;;;;;16.17;14.57;;;7.90;57.00;;;;;;5001561;28;20183;-90
2021/03/09 10:45:20;;;;;;;19.00;15.20;;;7.80;57.70;;;;;;4986134;28;20187;-90
2021/03/09 10:48:00;;;;;;;17.03;15.23;;;7.60;58.00;;;;;;4986155;28;20186;-90
2021/03/09 10:50:31;;;;;;;33.33;27.77;;;7.30;59.40;;;;;;4985262;28;20218;-89
2021/03/09 10:52:58;;;;;;;18.63;15.47;;;7.50;59.60;;;;;;4986535;28;20210;-89
2021/03/09 10:55:24;;;;;;;17.83;16.03;;;7.70;58.70;;;;;;4985841;28;20209;-91
2021/03/09 10:57:50;;;;;;;19.43;17.37;;;7.90;57.80;;;;;;4986355;28;20175;-90
2021/03/09 11:00:21;;;;;;;16.93;15.23;;;7.90;59.00;;;;;;4985285;28;20674;-89
2021/03/09 11:02:47;;;;;;;16.83;15.17;;;8.10;57.10;;;;;;4983813;28;20613;-90
2021/03/09 11:05:13;;;;;;;20.07;16.53;;;8.20;57.10;;;;;;4986493;28;20179;-89
2021/03/09 11:07:40;;;;;;;21.63;14.17;;;8.30;56.60;;;;;;4984941;28;20187;-90
2021/03/09 11:10:08;;;;;;;15.43;13.90;;;8.30;56.70;;;;;;4984461;28;20614;-90
2021/03/09 11:12:34;;;;;;;16.57;13.60;;;8.30;56.40;;;;;;5001353;28;20726;-90
2021/03/09 11:14:59;;;;;;;15.40;13.90;;;8.50;56.00;;;;;;4986404;28;20175;-90
2021/03/09 11:17:25;;;;;;;17.67;15.60;;;8.60;56.20;;;;;;4984764;28;20960;-89
2021/03/09 11:19:51;;;;;;;16.53;14.60;;;8.50;56.30;;;;;;4986014;28;20315;-90
2021/03/09 11:22:17;;;;;;;18.00;14.23;;;8.50;55.90;;;;;;4985197;28;20206;-90
2021/03/09 11:24:43;;;;;;;16.67;13.90;;;8.60;56.10;;;;;;4986311;28;20175;-89
2021/03/09 11:27:09;;;;;;;18.10;14.50;;;8.70;55.30;;;;;;4984727;28;20187;-89
2021/03/09 11:29:36;;;;;;;16.30;14.50;;;8.90;54.90;;;;;;5000935;28;20252;-88
2021/03/09 11:32:02;;;;;;;16.93;15.13;;;9.20;54.30;;;;;;4985526;28;20199;-89
2021/03/09 11:34:28;;;;;;;19.40;14.30;;;9.50;53.60;;;;;;4971666;28;20211;-89
2021/03/09 11:36:54;;;;;;;15.73;14.03;;;9.70;53.10;;;;;;4977256;28;20203;-88
2021/03/09 11:39:20;;;;;;;22.77;15.63;;;10.00;51.00;;;;;;4982970;28;20198;-89
2021/03/09 11:41:48;;;;;;;17.63;14.80;;;10.40;50.40;;;;;;4969877;28;20231;-89
2021/03/09 11:44:14;;;;;;;15.03;13.43;;;10.50;49.30;;;;;;4980216;28;20182;-89
2021/03/09 11:46:41;;;;;;;14.53;13.10;;;10.60;49.40;;;;;;4965609;29;20183;-89
2021/03/09 11:49:07;;;;;;;15.03;13.33;;;10.80;47.00;;;;;;4965596;29;20214;-88
2021/03/09 11:51:32;;;;;;;14.00;12.57;;;11.10;46.80;;;;;;4977482;28;20505;-88
2021/03/09 11:53:58;;;;;;;13.67;12.37;;;11.00;46.10;;;;;;4985091;28;20198;-88
2021/03/09 11:56:24;;;;;;;14.53;13.03;;;11.10;46.00;;;;;;4990505;28;20215;-88
2021/03/09 11:58:50;;;;;;;14.60;13.20;;;11.30;45.60;;;;;;4965536;28;20188;-88
2021/03/09 12:01:17;;;;;;;14.60;13.10;;;11.10;45.80;;;;;;4979369;28;20223;-88
2021/03/09 12:03:43;;;;;;;15.00;13.40;;;11.20;45.70;;;;;;4962254;29;20234;-88
2021/03/09 12:06:09;;;;;;;17.17;12.70;;;11.40;45.70;;;;;;4963155;29;20187;-89
2021/03/09 12:08:34;;;;;;;13.30;12.00;;;11.30;45.20;;;;;;4979974;28;20219;-90
2021/03/09 12:11:00;;;;;;;14.90;13.30;;;11.60;44.70;;;;;;4982893;28;20231;-89
2021/03/09 12:13:26;;;;;;;14.70;13.23;;;11.90;43.30;;;;;;4981340;28;20179;-90
2021/03/09 12:15:52;;;;;;;16.97;12.70;;;11.70;42.80;;;;;;4985639;28;20299;-90
2021/03/09 12:18:18;;;;;;;15.90;13.77;;;11.60;44.10;;;;;;4984910;28;20210;-90
2021/03/09 12:20:44;;;;;;;13.57;12.17;;;11.60;44.10;;;;;;4984369;28;20709;-91
2021/03/09 12:23:12;;;;;;;15.03;12.70;;;11.60;44.30;;;;;;4982291;28;20269;-91
2021/03/09 12:25:37;;;;;;;20.87;13.23;;;11.60;44.30;;;;;;4997935;28;20180;-91
2021/03/09 12:28:15;;;;;;;14.50;13.10;;;11.80;42.50;;;;;;4977684;28;20323;-91
2021/03/09 12:30:41;;;;;;;13.37;11.97;;;11.90;42.40;;;;;;4975446;28;20237;-90
2021/03/09 12:33:06;;;;;;;13.87;12.37;;;12.50;41.50;;;;;;4977509;28;20200;-90
2021/03/09 12:35:32;;;;;;;13.57;12.10;;;12.60;41.10;;;;;;4984846;28;20231;-91
2021/03/09 12:37:58;;;;;;;13.17;11.97;;;12.70;40.90;;;;;;4985261;28;20215;-91
2021/03/09 12:40:24;;;;;;;12.80;11.57;;;12.80;40.00;;;;;;4983723;28;20567;-90
2021/03/09 12:42:49;;;;;;;12.90;11.77;;;13.00;39.70;;;;;;4958146;28;20201;-91
2021/03/09 12:45:15;;;;;;;12.50;11.10;;;13.00;39.10;;;;;;4984291;28;20193;-91
2021/03/09 12:47:41;;;;;;;12.80;11.30;;;13.00;39.80;;;;;;4982984;28;20290;-91
2021/03/09 12:50:08;;;;;;;22.83;11.50;;;13.00;39.70;;;;;;4983048;28;20209;-91